Louis Armstrong New Orleans International Airport
KMSY : now visible

Airfield :











YOU CAN JOIN US ON...

 
LOGIN :

Register | Disclaimer

   EN    FR    IT 

 









Legend :    VFR   Marginal VFR   IFR   Intensive IFR   Very Intensive IFR
Visi :
Ceiling :
>= 8 km
>= 3000ft
5 to 8 km
1000 to 3000 ft
1500m to 5 km
500 to 1000 ft
800 to 1500m
200 to 500 ft
< 800m
< 200 ft
Symbols :   Thunderstorms  Fog  Heavy snow  Heavy precipitations  Wind > 20 kt






- Airport Elevation : 4 ft
- IATA code : MSY


KMSY - Louis Armstrong New Orleans International

CURRENT METAR :
  • 291500Z 27014G19KT 10SM BKN008 BKN013 17/14 A2983 RMK AO2 T01670144

EXPIRED METARs :
  • 291453Z 27008KT 10SM SCT008 BKN013 17/15 A2982 RMK AO2 SLP101 60000 T01720150 53017
  • 291353Z 29006KT 9SM SCT010 BKN026 16/14 A2981 RMK AO2 SLP096 T01610139
  • 291253Z 29004KT 10SM FEW008 BKN013 16/14 A2978 RMK AO2 RAE03 SLP088 P0000 T01560144

TAF KMSY
Valid from the 29 at 12:00 until the 30 at 18:00 UTC


291127Z 2912/3018 12010KT P6SM -RA VCSH BKN009 BKN018 OVC026
FM291400 26008KT P6SM SCT015 OVC020
FM292300 35010KT P6SM SCT010 BKN060
FM300300 02010KT P6SM SCT015 BKN020
FM300600 04009KT P6SM FEW008 SCT110



MET'MAP, your aeronautical weather chart ! - Copyright ORBIFLY December 2007 - Disclaimer

ORBIFLY MET'MAP TEAM :

Programming & Development : Alexandra Zaïnal
Concept & original design : Baudouin d'Aumeries
Assistance for programming : Marc-Olivier Méhu
Technical & hardware support : Manuel Goepfert

Contact : metmap@orbifly.com




SOURCES & CREDITS :

   NOAA       Earth
Advisory